Time;durP1;ratioP1;P1;durP2;ratioP2;P2;SDS_P1;SDS_P2;PMS_P1;PMS_P2;Temp;Humidity;BMP_temperature;BMP_pressure;BME280_temperature;BME280_humidity;BME280_pressure;Samples;Min_cycle;Max_cycle;Signal;HPM_P1;HPM_P2
2021/10/01 00:02:02;;;;;;;;;;;11.40;99.90;;;;;;5061104;28;19939;-82
2021/10/01 00:04:28;;;;;;;;;;;11.40;99.90;;;;;;5064718;28;19955;-83
2021/10/01 00:06:53;;;;;;;;;;;11.50;99.90;;;;;;5057936;28;19948;-83
2021/10/01 00:09:19;;;;;;;;;;;11.50;99.90;;;;;;5059001;28;19916;-83
2021/10/01 00:11:54;;;;;;;;;;;11.50;99.90;;;;;;5058209;28;19988;-83
2021/10/01 00:14:20;;;;;;;;;;;11.50;99.90;;;;;;5058595;28;20430;-83
2021/10/01 00:16:46;;;;;;;;;;;11.50;99.90;;;;;;5062090;28;19913;-82
2021/10/01 00:19:12;;;;;;;;;;;11.50;99.90;;;;;;5059750;28;19916;-83
2021/10/01 00:21:38;;;;;;;;;;;11.60;99.90;;;;;;5061399;28;19921;-83
2021/10/01 00:24:07;;;;;;;;;;;11.60;99.90;;;;;;5052800;28;19959;-83
2021/10/01 00:26:32;;;;;;;;;;;11.50;99.90;;;;;;5053554;28;19975;-82
2021/10/01 00:28:58;;;;;;;;;;;11.50;99.90;;;;;;5053453;28;19948;-81
2021/10/01 00:31:23;;;;;;;;;;;11.50;99.90;;;;;;5061100;28;19916;-83
2021/10/01 00:33:49;;;;;;;;;;;11.50;99.90;;;;;;5074636;28;20375;-83
2021/10/01 00:36:14;;;;;;;;;;;11.40;99.90;;;;;;5056959;28;19995;-83
2021/10/01 00:38:40;;;;;;;;;;;11.40;99.90;;;;;;5056564;28;19920;-82
2021/10/01 00:41:05;;;;;;;;;;;11.40;99.90;;;;;;5056073;28;20019;-83
2021/10/01 00:43:31;;;;;;;;;;;11.30;99.90;;;;;;5072823;28;19916;-82
2021/10/01 00:45:56;;;;;;;;;;;11.30;99.90;;;;;;5057971;28;20355;-83
2021/10/01 00:48:21;;;;;;;;;;;11.20;99.90;;;;;;5058305;28;19920;-83
2021/10/01 00:50:47;;;;;;;;;;;11.20;99.90;;;;;;5058129;28;20000;-83
2021/10/01 00:53:13;;;;;;;;;;;11.10;99.90;;;;;;5072977;28;19913;-83
2021/10/01 00:55:38;;;;;;;;;;;11.10;99.90;;;;;;5056851;28;19936;-83
2021/10/01 00:58:04;;;;;;;;;;;11.10;99.90;;;;;;5075176;28;19913;-83
2021/10/01 01:00:29;;;;;;;;;;;11.00;99.90;;;;;;5080660;28;19912;-83
2021/10/01 01:03:00;;;;;;;;;;;11.00;99.90;;;;;;5072975;28;19912;-83
2021/10/01 01:05:30;;;;;;;;;;;11.00;99.90;;;;;;5082047;28;19955;-83
2021/10/01 01:08:02;;;;;;;;;;;11.00;99.90;;;;;;5078049;28;19917;-82
2021/10/01 01:10:41;;;;;;;;;;;11.00;1.00;;;;;;5080240;28;19938;-82
2021/10/01 01:13:25;;;;;;;;;;;10.90;1.00;;;;;;5063445;28;19924;-83
2021/10/01 01:15:55;;;;;;;;;;;10.90;1.00;;;;;;5058645;28;20319;-82
2021/10/01 01:18:30;;;;;;;;;;;10.90;1.00;;;;;;5057398;28;19909;-83
2021/10/01 01:20:58;;;;;;;;;;;10.80;1.00;;;;;;5061937;28;19912;-83
2021/10/01 01:23:38;;;;;;;;;;;10.80;1.00;;;;;;5060577;28;19909;-83
2021/10/01 01:26:10;;;;;;;;;;;10.80;1.00;;;;;;5061148;28;19909;-82
2021/10/01 01:28:54;;;;;;;;;;;10.80;1.00;;;;;;5075511;28;20008;-83
2021/10/01 01:31:38;;;;;;;;;;;10.80;1.00;;;;;;5063045;28;19965;-83
2021/10/01 01:34:03;;;;;;;;;;;10.70;1.00;;;;;;5066444;28;19946;-82
2021/10/01 01:36:29;;;;;;;;;;;10.70;1.00;;;;;;5060302;28;19909;-83
2021/10/01 01:38:56;;;;;;;;;;;10.70;1.00;;;;;;5059538;28;19979;-83
2021/10/01 01:41:22;;;;;;;;;;;10.70;1.00;;;;;;5060848;28;19976;-82
2021/10/01 01:43:49;;;;;;;;;;;10.70;1.00;;;;;;5060550;28;19920;-82
2021/10/01 01:46:15;;;;;;;;;;;10.70;1.00;;;;;;5063428;28;20415;-83
2021/10/01 01:48:41;;;;;;;;;;;10.60;1.00;;;;;;5058362;28;19927;-82
2021/10/01 01:51:08;;;;;;;;;;;10.60;1.00;;;;;;5079504;28;19918;-83
2021/10/01 01:53:33;;;;;;;;;;;10.60;1.00;;;;;;5061074;28;19909;-83
2021/10/01 01:56:00;;;;;;;;;;;10.60;1.00;;;;;;5074516;28;20050;-82
2021/10/01 01:58:25;;;;;;;;;;;10.60;1.00;;;;;;5041397;28;19932;-82
2021/10/01 02:00:51;;;;;;;;;;;10.70;1.00;;;;;;5055538;28;20296;-82
2021/10/01 02:03:18;;;;;;;;;;;10.70;1.00;;;;;;5058086;28;19916;-82
2021/10/01 02:05:45;;;;;;;;;;;10.60;1.00;;;;;;5056031;28;19920;-82
2021/10/01 02:08:11;;;;;;;;;;;10.60;1.00;;;;;;5053978;28;20426;-82
2021/10/01 02:10:37;;;;;;;;;;;10.60;1.00;;;;;;5049371;28;20288;-82
2021/10/01 02:13:03;;;;;;;;;;;10.60;1.00;;;;;;5055953;28;19919;-80
2021/10/01 02:15:30;;;;;;;;;;;10.60;1.00;;;;;;5055676;28;19956;-82
2021/10/01 02:17:58;;;;;;;;;;;10.70;1.00;;;;;;5055252;28;19913;-82
2021/10/01 02:20:24;;;;;;;;;;;10.70;1.00;;;;;;5055297;28;19947;-83
2021/10/01 02:22:50;;;;;;;;;;;10.70;1.00;;;;;;5064152;28;19916;-82
2021/10/01 02:28:14;;;;;;;;;;;10.70;1.00;;;;;;5055192;28;20034;-82
2021/10/01 02:30:41;;;;;;;;;;;10.70;1.00;;;;;;5055009;28;19979;-82
2021/10/01 02:33:08;;;;;;;;;;;10.80;1.00;;;;;;5056076;28;20011;-82
2021/10/01 02:35:34;;;;;;;;;;;10.80;1.00;;;;;;5055016;28;19915;-82
2021/10/01 02:38:00;;;;;;;;;;;10.80;1.00;;;;;;5057737;28;19995;-82
2021/10/01 02:40:25;;;;;;;;;;;10.90;1.00;;;;;;5068646;28;19909;-83
2021/10/01 02:42:51;;;;;;;;;;;10.90;1.00;;;;;;5063613;28;19913;-83
2021/10/01 02:45:16;;;;;;;;;;;10.90;1.00;;;;;;5060856;28;19916;-83
2021/10/01 02:47:42;;;;;;;;;;;11.00;1.00;;;;;;5060774;28;19927;-83
2021/10/01 02:50:12;;;;;;;;;;;11.00;1.00;;;;;;5069223;28;19908;-83
2021/10/01 02:52:40;;;;;;;;;;;11.00;1.00;;;;;;5062378;28;20003;-83
2021/10/01 02:55:09;;;;;;;;;;;11.00;1.00;;;;;;5060830;28;19909;-83
2021/10/01 02:57:40;;;;;;;;;;;11.00;1.00;;;;;;5044983;28;19913;-82
2021/10/01 03:00:06;;;;;;;;;;;11.00;1.00;;;;;;5069598;28;19984;-82
2021/10/01 03:02:32;;;;;;;;;;;10.90;1.00;;;;;;5076580;28;19948;-83
2021/10/01 03:04:57;;;;;;;;;;;10.80;1.00;;;;;;5066438;28;19952;-83
2021/10/01 03:07:25;;;;;;;;;;;10.80;1.00;;;;;;5080236;28;19923;-82
2021/10/01 03:09:52;;;;;;;;;;;10.70;99.90;;;;;;5060631;28;19912;-83
2021/10/01 03:12:19;;;;;;;;;;;10.70;99.90;;;;;;5063965;28;19908;-83
2021/10/01 03:14:45;;;;;;;;;;;10.70;1.00;;;;;;5057087;28;19919;-83
2021/10/01 03:17:11;;;;;;;;;;;10.60;40.10;;;;;;5062391;28;19954;-82
2021/10/01 03:19:37;;;;;;;;;;;10.60;99.90;;;;;;5079881;28;20396;-83
2021/10/01 03:22:03;;;;;;;;;;;10.60;1.00;;;;;;5063413;28;19913;-83
2021/10/01 03:24:29;;;;;;;;;;;10.60;1.00;;;;;;5076672;28;20392;-82
2021/10/01 03:26:55;;;;;;;;;;;10.60;12.40;;;;;;5060920;28;19920;-82
2021/10/01 03:29:20;;;;;;;;;;;10.60;90.60;;;;;;5055444;28;20351;-82
2021/10/01 03:31:47;;;;;;;;;;;10.60;99.90;;;;;;5053870;28;19909;-83
2021/10/01 03:34:12;;;;;;;;;;;10.60;99.90;;;;;;5054587;28;19913;-82
2021/10/01 03:36:38;;;;;;;;;;;10.60;99.90;;;;;;5054468;28;19919;-82
2021/10/01 03:39:03;;;;;;;;;;;10.60;99.90;;;;;;5054366;28;19928;-82
2021/10/01 03:41:29;;;;;;;;;;;10.60;99.90;;;;;;5057068;28;19920;-83
2021/10/01 03:43:54;;;;;;;;;;;10.70;99.90;;;;;;5058096;28;19913;-83
2021/10/01 03:46:20;;;;;;;;;;;10.70;99.90;;;;;;5074153;28;19909;-83
2021/10/01 03:48:45;;;;;;;;;;;10.70;99.90;;;;;;5056745;28;19912;-83
2021/10/01 03:51:11;;;;;;;;;;;10.80;22.50;;;;;;5056737;28;20364;-83
2021/10/01 03:53:37;;;;;;;;;;;10.80;1.00;;;;;;5060653;28;19912;-82
2021/10/01 03:56:02;;;;;;;;;;;10.90;1.00;;;;;;5077668;28;20276;-83
2021/10/01 03:58:28;;;;;;;;;;;10.90;1.00;;;;;;5066964;28;19909;-82
2021/10/01 04:00:53;;;;;;;;;;;11.00;1.00;;;;;;5058560;28;19963;-83
2021/10/01 04:03:19;;;;;;;;;;;11.00;1.00;;;;;;5057921;28;19916;-82
2021/10/01 04:05:44;;;;;;;;;;;11.00;1.00;;;;;;5057477;28;20402;-82
2021/10/01 04:08:10;;;;;;;;;;;11.00;1.00;;;;;;5063909;28;19917;-82
2021/10/01 04:10:36;;;;;;;;;;;11.00;1.00;;;;;;5082350;28;20004;-83
2021/10/01 04:13:03;;;;;;;;;;;11.00;1.00;;;;;;5059964;28;19948;-83
2021/10/01 04:15:28;;;;;;;;;;;11.00;1.00;;;;;;5062449;28;20237;-83
2021/10/01 04:17:54;;;;;;;;;;;11.00;1.00;;;;;;5063309;28;19913;-83
2021/10/01 04:20:19;;;;;;;;;;;11.00;1.00;;;;;;5081552;28;19955;-83
2021/10/01 04:22:46;;;;;;;;;;;10.90;1.00;;;;;;5065495;28;19912;-82
2021/10/01 04:25:11;;;;;;;;;;;10.90;99.90;;;;;;5063672;28;19912;-83
2021/10/01 04:27:37;;;;;;;;;;;10.90;99.90;;;;;;5060409;28;19988;-82
2021/10/01 04:30:03;;;;;;;;;;;10.80;99.90;;;;;;5064947;28;19913;-83
2021/10/01 04:32:29;;;;;;;;;;;10.80;99.90;;;;;;5077184;28;19916;-83
2021/10/01 04:35:03;;;;;;;;;;;10.70;99.90;;;;;;5070713;28;19952;-82
2021/10/01 04:37:28;;;;;;;;;;;10.70;99.90;;;;;;5076721;28;19920;-82
2021/10/01 04:39:54;;;;;;;;;;;10.70;1.00;;;;;;5075498;28;19913;-83
2021/10/01 04:42:20;;;;;;;;;;;10.60;1.00;;;;;;5060988;28;19956;-83
2021/10/01 04:44:45;;;;;;;;;;;10.60;1.00;;;;;;5061062;28;19908;-82
2021/10/01 04:47:11;;;;;;;;;;;10.60;1.00;;;;;;5061075;28;19913;-83
2021/10/01 04:49:36;;;;;;;;;;;10.60;1.00;;;;;;5061500;28;19916;-83
2021/10/01 04:52:02;;;;;;;;;;;10.60;1.00;;;;;;5060803;28;19920;-83
2021/10/01 04:54:28;;;;;;;;;;;10.60;1.00;;;;;;5062080;28;19943;-82
2021/10/01 04:56:53;;;;;;;;;;;10.60;1.00;;;;;;5059035;28;19919;-82
2021/10/01 04:59:19;;;;;;;;;;;10.50;1.00;;;;;;5061409;28;19913;-82
2021/10/01 05:01:44;;;;;;;;;;;10.50;1.00;;;;;;5075208;28;19982;-82
2021/10/01 05:04:10;;;;;;;;;;;10.50;1.00;;;;;;5061980;28;19909;-83
2021/10/01 05:06:35;;;;;;;;;;;10.40;1.00;;;;;;5066170;28;19920;-83
2021/10/01 05:09:01;;;;;;;;;;;10.40;99.90;;;;;;5082053;28;19912;-82
2021/10/01 05:11:26;;;;;;;;;;;10.40;99.90;;;;;;5061329;28;19912;-83
2021/10/01 05:13:51;;;;;;;;;;;10.50;99.90;;;;;;5060315;28;20445;-82
2021/10/01 05:16:17;;;;;;;;;;;10.50;99.90;;;;;;5067275;28;19928;-83
2021/10/01 05:18:42;;;;;;;;;;;10.50;99.90;;;;;;5061555;28;19999;-82
2021/10/01 05:21:08;;;;;;;;;;;10.50;99.90;;;;;;5064489;28;19917;-82
2021/10/01 05:23:33;;;;;;;;;;;10.50;99.90;;;;;;5068849;28;19920;-82
2021/10/01 05:25:59;;;;;;;;;;;10.40;99.90;;;;;;5072927;28;19923;-83
2021/10/01 05:28:25;;;;;;;;;;;10.40;99.90;;;;;;5063002;28;19912;-82
2021/10/01 05:30:50;;;;;;;;;;;10.40;99.90;;;;;;5055352;28;19913;-82
2021/10/01 05:33:16;;;;;;;;;;;10.30;99.80;;;;;;5056417;28;19912;-82
2021/10/01 05:35:43;;;;;;;;;;;10.40;99.90;;;;;;5055545;28;19912;-83
2021/10/01 05:38:09;;;;;;;;;;;10.40;53.10;;;;;;5057832;28;20011;-83
2021/10/01 05:40:35;;;;;;;;;;;10.40;30.10;;;;;;5064082;28;19920;-82
2021/10/01 05:43:00;;;;;;;;;;;10.40;54.70;;;;;;5061049;28;19909;-82
2021/10/01 05:45:26;;;;;;;;;;;10.50;1.00;;;;;;5060378;28;19912;-82
2021/10/01 05:47:52;;;;;;;;;;;10.60;1.00;;;;;;5060788;28;19927;-82
2021/10/01 05:50:17;;;;;;;;;;;10.70;1.00;;;;;;5061516;28;20376;-82
2021/10/01 05:55:09;;;;;;;;;;;10.90;99.90;;;;;;5061198;28;20304;-82
2021/10/01 05:57:36;;;;;;;;;;;11.00;92.20;;;;;;5061610;28;20374;-82
2021/10/01 06:00:02;;;;;;;;;;;11.10;1.00;;;;;;5059434;28;19920;-82
2021/10/01 06:02:28;;;;;;;;;;;11.20;99.90;;;;;;5061648;28;19913;-82
2021/10/01 06:04:55;;;;;;;;;;;11.40;99.90;;;;;;5058327;28;19920;-82
2021/10/01 06:07:21;;;;;;;;;;;11.50;1.00;;;;;;5061656;28;20004;-82
2021/10/01 06:09:47;;;;;;;;;;;11.70;1.00;;;;;;5061596;28;20344;-82
2021/10/01 06:12:13;;;;;;;;;;;12.00;99.90;;;;;;5059173;28;20327;-82
2021/10/01 06:14:39;;;;;;;;;;;12.60;99.90;;;;;;5062107;28;19924;-84
2021/10/01 06:17:05;;;;;;;;;;;13.40;1.00;;;;;;5061127;28;20000;-82
2021/10/01 06:19:33;;;;;;;;;;;13.60;1.00;;;;;;5061499;28;19948;-82
2021/10/01 06:21:59;;;;;;;;;;;13.70;1.00;;;;;;5061102;28;19913;-82
2021/10/01 06:24:24;;;;;;;;;;;14.10;1.00;;;;;;5058414;28;19909;-82
2021/10/01 06:26:50;;;;;;;;;;;15.90;1.00;;;;;;5056744;28;19991;-82
2021/10/01 06:29:15;;;;;;;;;;;18.40;99.90;;;;;;5062091;28;19912;-82
2021/10/01 06:31:41;;;;;;;;;;;21.10;99.90;;;;;;5057740;28;19909;-83
2021/10/01 06:34:07;;;;;;;;;;;23.50;99.90;;;;;;5055977;28;19912;-82
2021/10/01 06:36:32;;;;;;;;;;;25.20;99.90;;;;;;5068121;28;19912;-83
2021/10/01 06:38:58;;;;;;;;;;;26.30;99.90;;;;;;5066157;28;20003;-82
2021/10/01 06:41:23;;;;;;;;;;;26.80;99.90;;;;;;5059996;28;19999;-83
2021/10/01 06:43:56;;;;;;;;;;;27.70;99.90;;;;;;5077382;28;19912;-85
2021/10/01 06:46:35;;;;;;;;;;;28.70;99.90;;;;;;5077205;28;19915;-83
2021/10/01 08:21:13;;;;;;;;;;;32.40;99.90;;;;;;5054791;28;19959;-81
2021/10/01 08:23:41;;;;;;;;;;;31.30;99.90;;;;;;5050730;28;19916;-81
2021/10/01 08:26:07;;;;;;;;;;;31.00;99.90;;;;;;5068064;28;20327;-81
2021/10/01 08:28:32;;;;;;;;;;;30.00;99.90;;;;;;5049505;28;19913;-81
2021/10/01 08:30:58;;;;;;;;;;;29.20;99.90;;;;;;5064062;28;19916;-81
2021/10/01 08:33:23;;;;;;;;;;;28.40;99.90;;;;;;5062206;28;19908;-82
2021/10/01 08:35:49;;;;;;;;;;;29.40;99.90;;;;;;5059900;28;20249;-82
2021/10/01 08:38:14;;;;;;;;;;;30.30;99.90;;;;;;5062673;28;20412;-82
2021/10/01 08:40:40;;;;;;;;;;;31.90;99.90;;;;;;5065756;28;19912;-82
2021/10/01 08:43:06;;;;;;;;;;;32.50;99.90;;;;;;5074105;28;19913;-82
2021/10/01 08:45:31;;;;;;;;;;;31.40;99.90;;;;;;5060464;28;20376;-82
2021/10/01 08:47:58;;;;;;;;;;;32.20;99.90;;;;;;5060592;28;19973;-82
2021/10/01 08:50:24;;;;;;;;;;;32.70;99.90;;;;;;5057395;28;20004;-82
2021/10/01 08:52:50;;;;;;;;;;;32.50;99.90;;;;;;5062878;28;19916;-82
2021/10/01 08:55:16;;;;;;;;;;;33.50;99.90;;;;;;5060955;28;19991;-82
2021/10/01 08:57:41;;;;;;;;;;;32.90;99.90;;;;;;5056218;28;19952;-81
2021/10/01 09:00:09;;;;;;;;;;;32.00;99.90;;;;;;5064700;28;19913;-82
2021/10/01 09:02:34;;;;;;;;;;;33.20;99.90;;;;;;5067838;28;19962;-82
2021/10/01 09:05:00;;;;;;;;;;;34.10;99.90;;;;;;5079708;28;20351;-82
2021/10/01 09:07:25;;;;;;;;;;;35.20;99.90;;;;;;5063017;28;19916;-83
2021/10/01 09:09:52;;;;;;;;;;;35.40;99.90;;;;;;5069415;28;19912;-82
2021/10/01 09:12:18;;;;;;;;;;;34.00;99.90;;;;;;5061830;28;19917;-83
2021/10/01 09:14:48;;;;;;;;;;;32.90;99.90;;;;;;5057532;28;20012;-82
2021/10/01 09:17:17;;;;;;;;;;;32.10;99.90;;;;;;5059364;28;19980;-82
2021/10/01 09:19:43;;;;;;;;;;;33.20;99.90;;;;;;5063829;28;19948;-82
2021/10/01 09:22:09;;;;;;;;;;;35.20;99.90;;;;;;5062357;28;19909;-82
2021/10/01 09:24:41;;;;;;;;;;;36.30;99.90;;;;;;5062372;28;20327;-82
2021/10/01 09:27:07;;;;;;;;;;;36.90;99.90;;;;;;5059187;28;19913;-82
2021/10/01 09:29:34;;;;;;;;;;;36.80;99.90;;;;;;5057118;28;19919;-82
2021/10/01 09:32:01;;;;;;;;;;;37.20;99.90;;;;;;5059375;28;19920;-84
2021/10/01 09:34:26;;;;;;;;;;;36.80;99.90;;;;;;5059785;28;19913;-82
2021/10/01 09:37:07;;;;;;;;;;;36.70;99.90;;;;;;5062273;28;19913;-82
2021/10/01 09:39:34;;;;;;;;;;;36.40;99.90;;;;;;5057455;28;19916;-83
2021/10/01 09:42:09;;;;;;;;;;;36.90;99.90;;;;;;5058226;28;19909;-82
2021/10/01 09:44:34;;;;;;;;;;;37.30;99.90;;;;;;5055534;28;19913;-82
2021/10/01 09:47:05;;;;;;;;;;;38.30;99.90;;;;;;5059501;28;19919;-82
2021/10/01 09:49:32;;;;;;;;;;;39.20;99.90;;;;;;5071503;28;19996;-82
2021/10/01 09:51:57;;;;;;;;;;;39.60;99.90;;;;;;5057580;28;19924;-82
2021/10/01 09:54:24;;;;;;;;;;;39.90;99.90;;;;;;5059519;28;19917;-82
2021/10/01 09:56:50;;;;;;;;;;;40.60;99.90;;;;;;5063303;28;19912;-82
2021/10/01 09:59:22;;;;;;;;;;;41.40;99.90;;;;;;5056923;28;19912;-82
2021/10/01 10:01:58;;;;;;;;;;;41.80;99.90;;;;;;5047439;28;19921;-82
2021/10/01 10:04:23;;;;;;;;;;;41.10;99.90;;;;;;5069873;28;19913;-82
2021/10/01 10:06:49;;;;;;;;;;;41.00;99.90;;;;;;5055040;28;19920;-82
2021/10/01 10:09:14;;;;;;;;;;;40.70;99.90;;;;;;5051342;28;19935;-82
2021/10/01 10:11:43;;;;;;;;;;;40.30;99.90;;;;;;5065057;28;19924;-82
2021/10/01 10:14:09;;;;;;;;;;;40.40;99.90;;;;;;5074542;28;19960;-82
2021/10/01 10:16:35;;;;;;;;;;;40.20;99.90;;;;;;5062963;28;20392;-82
2021/10/01 10:19:06;;;;;;;;;;;40.10;99.90;;;;;;5067032;28;19932;-82
2021/10/01 10:21:31;;;;;;;;;;;40.20;99.90;;;;;;5055766;28;19999;-82
2021/10/01 10:23:57;;;;;;;;;;;40.50;99.90;;;;;;5063846;28;19955;-83
2021/10/01 10:26:24;;;;;;;;;;;40.20;99.90;;;;;;5067087;28;19913;-82
2021/10/01 10:28:51;;;;;;;;;;;39.50;99.90;;;;;;5059724;28;19923;-81
2021/10/01 10:31:17;;;;;;;;;;;38.20;99.90;;;;;;5061443;28;20449;-82
2021/10/01 10:33:44;;;;;;;;;;;36.40;99.90;;;;;;5059638;28;19913;-81
2021/10/01 10:36:22;;;;;;;;;;;34.70;99.90;;;;;;5056044;28;20335;-81
2021/10/01 10:38:47;;;;;;;;;;;33.70;99.90;;;;;;5055897;28;19963;-81
2021/10/01 10:41:23;;;;;;;;;;;33.50;99.90;;;;;;5062005;28;19912;-82
2021/10/01 10:43:48;;;;;;;;;;;34.30;99.90;;;;;;5055305;28;19913;-81
2021/10/01 10:46:32;;;;;;;;;;;34.30;99.90;;;;;;5069537;28;19959;-81
2021/10/01 10:49:16;;;;;;;;;;;34.30;99.90;;;;;;5071760;28;19913;-82
2021/10/01 10:52:06;;;;;;;;;;;35.40;99.90;;;;;;5066747;28;19916;-81
2021/10/01 10:54:34;;;;;;;;;;;35.10;99.90;;;;;;5051200;28;19912;-82
2021/10/01 10:57:23;;;;;;;;;;;35.80;99.90;;;;;;5059262;28;19913;-81
2021/10/01 10:59:50;;;;;;;;;;;36.10;99.90;;;;;;5075072;28;19939;-82
2021/10/01 11:02:25;;;;;;;;;;;36.70;99.90;;;;;;5066619;28;19913;-81
2021/10/01 11:04:51;;;;;;;;;;;37.10;99.90;;;;;;5061818;28;19912;-82
2021/10/01 11:07:35;;;;;;;;;;;36.90;99.90;;;;;;5063020;28;19939;-83
2021/10/01 11:10:19;;;;;;;;;;;36.50;99.90;;;;;;5061804;28;19916;-82
2021/10/01 11:12:45;;;;;;;;;;;36.00;99.90;;;;;;5063888;28;19948;-82
2021/10/01 11:15:11;;;;;;;;;;;35.60;99.90;;;;;;5064793;28;19916;-82
2021/10/01 11:17:37;;;;;;;;;;;36.00;99.90;;;;;;5062389;28;19912;-82
2021/10/01 11:20:02;;;;;;;;;;;35.90;99.90;;;;;;5058402;28;19921;-82
2021/10/01 11:22:34;;;;;;;;;;;35.70;99.90;;;;;;5058380;28;19929;-82
2021/10/01 11:25:05;;;;;;;;;;;35.50;99.90;;;;;;5060417;28;19917;-82
2021/10/01 11:27:45;;;;;;;;;;;35.20;99.90;;;;;;5078173;28;19912;-83
2021/10/01 11:30:11;;;;;;;;;;;35.20;99.90;;;;;;5061364;28;19999;-83
2021/10/01 11:32:36;;;;;;;;;;;35.30;99.90;;;;;;5072858;28;19952;-82
2021/10/01 11:35:02;;;;;;;;;;;34.40;99.90;;;;;;5060527;28;19909;-83
2021/10/01 11:37:32;;;;;;;;;;;34.30;99.90;;;;;;5060486;28;20004;-83
2021/10/01 11:40:08;;;;;;;;;;;34.00;99.90;;;;;;5064065;28;19943;-83
2021/10/01 11:42:36;;;;;;;;;;;33.80;99.90;;;;;;5057645;28;20000;-82
2021/10/01 11:45:12;;;;;;;;;;;32.90;99.90;;;;;;5062850;28;19927;-82
2021/10/01 11:47:39;;;;;;;;;;;32.50;99.90;;;;;;5062104;28;19923;-83
2021/10/01 11:50:05;;;;;;;;;;;33.10;99.90;;;;;;5059754;28;19917;-82
2021/10/01 11:52:40;;;;;;;;;;;32.80;99.90;;;;;;5053932;28;19970;-82
2021/10/01 11:55:06;;;;;;;;;;;32.90;99.90;;;;;;5077657;28;19992;-82
2021/10/01 11:57:35;;;;;;;;;;;33.20;99.90;;;;;;5072880;28;20337;-82
2021/10/01 12:00:02;;;;;;;;;;;33.60;99.90;;;;;;5050905;28;19919;-82
2021/10/01 12:02:29;;;;;;;;;;;33.50;99.90;;;;;;5049822;28;20291;-83
2021/10/01 12:04:54;;;;;;;;;;;33.50;99.90;;;;;;5060745;28;19932;-84
2021/10/01 12:07:20;;;;;;;;;;;33.60;99.90;;;;;;5069726;28;20443;-82
2021/10/01 12:10:02;;;;;;;;;;;33.70;99.90;;;;;;5055354;28;19913;-82
2021/10/01 12:12:28;;;;;;;;;;;33.60;99.90;;;;;;5057119;28;19916;-82
2021/10/01 12:14:53;;;;;;;;;;;33.30;99.90;;;;;;5055923;28;19913;-81
2021/10/01 12:17:19;;;;;;;;;;;32.90;99.90;;;;;;5056864;28;19913;-82
2021/10/01 12:19:44;;;;;;;;;;;32.70;99.90;;;;;;5050642;28;19912;-82
2021/10/01 12:22:14;;;;;;;;;;;32.50;99.90;;;;;;5062621;28;19917;-82
2021/10/01 12:24:47;;;;;;;;;;;32.30;99.90;;;;;;5065504;28;19916;-82
2021/10/01 12:27:17;;;;;;;;;;;31.90;99.90;;;;;;5075732;28;19908;-82
2021/10/01 12:29:43;;;;;;;;;;;31.80;99.90;;;;;;5061371;28;19970;-82
2021/10/01 12:32:09;;;;;;;;;;;31.80;99.90;;;;;;5055372;28;19921;-82
2021/10/01 12:34:37;;;;;;;;;;;31.60;99.90;;;;;;5054354;28;19912;-82
2021/10/01 12:37:07;;;;;;;;;;;31.20;99.90;;;;;;5050838;28;19948;-81
2021/10/01 12:39:34;;;;;;;;;;;30.60;99.90;;;;;;5047750;28;19913;-81
2021/10/01 12:42:02;;;;;;;;;;;29.90;99.90;;;;;;5053389;28;19917;-82
2021/10/01 12:44:28;;;;;;;;;;;29.50;99.90;;;;;;5050911;28;20400;-82
2021/10/01 12:46:54;;;;;;;;;;;29.20;99.90;;;;;;5049948;28;19916;-82
2021/10/01 12:49:22;;;;;;;;;;;29.20;99.90;;;;;;5051701;28;19920;-81
2021/10/01 12:52:08;;;;;;;;;;;28.90;99.90;;;;;;5047197;28;19928;-81
2021/10/01 12:54:50;;;;;;;;;;;28.60;99.90;;;;;;5057193;28;20003;-80
2021/10/01 12:57:17;;;;;;;;;;;28.40;99.90;;;;;;5053408;28;19917;-80
2021/10/01 12:59:45;;;;;;;;;;;27.90;99.90;;;;;;5056674;28;19919;-82
2021/10/01 13:02:18;;;;;;;;;;;27.30;99.90;;;;;;5061716;28;19912;-82
2021/10/01 13:04:48;;;;;;;;;;;27.00;99.90;;;;;;5056523;28;19920;-81
2021/10/01 13:07:30;;;;;;;;;;;26.80;99.90;;;;;;5072314;28;19959;-82
2021/10/01 13:09:57;;;;;;;;;;;26.70;99.90;;;;;;5046556;28;19913;-82
2021/10/01 13:12:27;;;;;;;;;;;26.50;99.90;;;;;;5056110;28;20287;-82
2021/10/01 13:15:09;;;;;;;;;;;26.40;99.90;;;;;;5056508;28;19909;-82
2021/10/01 13:17:34;;;;;;;;;;;26.40;99.90;;;;;;5072174;28;20011;-80
2021/10/01 13:20:00;;;;;;;;;;;26.50;99.90;;;;;;5060880;28;19955;-81
2021/10/01 13:22:26;;;;;;;;;;;26.60;99.90;;;;;;5059215;28;19913;-80
2021/10/01 13:24:55;;;;;;;;;;;26.50;99.90;;;;;;5065323;28;19934;-81
2021/10/01 13:27:20;;;;;;;;;;;26.40;99.90;;;;;;5064807;28;20293;-80
2021/10/01 13:29:46;;;;;;;;;;;26.20;99.90;;;;;;5073336;28;19913;-80
2021/10/01 13:32:12;;;;;;;;;;;26.00;99.90;;;;;;5075982;28;19912;-80
2021/10/01 13:34:38;;;;;;;;;;;25.80;99.90;;;;;;5058021;28;20581;-80
2021/10/01 13:37:03;;;;;;;;;;;25.50;99.90;;;;;;5059030;28;19909;-80
2021/10/01 13:39:29;;;;;;;;;;;25.20;99.90;;;;;;5058696;28;19916;-80
2021/10/01 13:41:54;;;;;;;;;;;25.10;99.90;;;;;;5062822;28;19936;-80
2021/10/01 13:44:20;;;;;;;;;;;25.00;99.90;;;;;;5052572;28;19913;-80
2021/10/01 13:46:45;;;;;;;;;;;24.80;99.90;;;;;;5057069;28;19908;-80
2021/10/01 13:49:11;;;;;;;;;;;24.70;99.90;;;;;;5059020;28;20007;-80
2021/10/01 13:51:36;;;;;;;;;;;24.70;99.90;;;;;;5057505;28;19966;-81
2021/10/01 13:54:02;;;;;;;;;;;24.70;99.90;;;;;;5059122;28;19913;-80
2021/10/01 13:56:27;;;;;;;;;;;24.70;99.90;;;;;;5064405;28;19957;-80
2021/10/01 13:58:53;;;;;;;;;;;24.70;99.90;;;;;;5078567;28;19916;-80
2021/10/01 14:01:18;;;;;;;;;;;24.60;99.90;;;;;;5060798;28;19920;-80
2021/10/01 14:03:44;;;;;;;;;;;24.40;99.90;;;;;;5058371;28;19909;-80
2021/10/01 14:06:09;;;;;;;;;;;24.20;99.90;;;;;;5065390;28;19999;-80
2021/10/01 14:08:35;;;;;;;;;;;24.00;99.90;;;;;;5062331;28;19916;-80
2021/10/01 14:11:00;;;;;;;;;;;23.80;99.90;;;;;;5055957;28;19917;-79
2021/10/01 14:13:25;;;;;;;;;;;23.60;99.90;;;;;;5055877;28;20432;-80
2021/10/01 14:15:52;;;;;;;;;;;23.50;99.90;;;;;;5058525;28;19913;-79
2021/10/01 14:18:18;;;;;;;;;;;23.40;99.90;;;;;;5058092;28;19913;-80
2021/10/01 14:20:44;;;;;;;;;;;23.30;99.90;;;;;;5060555;28;19921;-80
2021/10/01 14:23:10;;;;;;;;;;;23.30;99.90;;;;;;5047573;28;19912;-80
2021/10/01 14:25:36;;;;;;;;;;;23.30;99.90;;;;;;5070389;28;20348;-80
2021/10/01 14:28:02;;;;;;;;;;;23.20;99.90;;;;;;5057494;28;19940;-80
2021/10/01 14:30:29;;;;;;;;;;;23.20;99.90;;;;;;5059462;28;19924;-80
2021/10/01 14:32:55;;;;;;;;;;;23.20;99.90;;;;;;5058244;28;19920;-81
2021/10/01 14:35:21;;;;;;;;;;;23.10;99.90;;;;;;5054924;28;20280;-81
2021/10/01 14:37:47;;;;;;;;;;;23.00;99.90;;;;;;5053368;28;19919;-81
2021/10/01 14:40:12;;;;;;;;;;;22.90;99.90;;;;;;5054507;28;19920;-80
2021/10/01 14:42:38;;;;;;;;;;;22.70;99.90;;;;;;5056896;28;19978;-80
2021/10/01 14:45:04;;;;;;;;;;;22.60;99.90;;;;;;5064928;28;19999;-80
2021/10/01 14:47:30;;;;;;;;;;;22.50;99.90;;;;;;5057333;28;19909;-80
2021/10/01 14:49:56;;;;;;;;;;;22.40;99.90;;;;;;5064942;28;19927;-81
2021/10/01 14:52:22;;;;;;;;;;;22.30;99.90;;;;;;5057657;28;20306;-80
2021/10/01 14:54:47;;;;;;;;;;;22.30;99.90;;;;;;5057021;28;19917;-80
2021/10/01 14:57:13;;;;;;;;;;;22.20;99.90;;;;;;5060251;28;19920;-80
2021/10/01 14:59:38;;;;;;;;;;;22.10;99.90;;;;;;5050982;28;19917;-80
2021/10/01 15:02:06;;;;;;;;;;;21.90;99.90;;;;;;5058881;28;19994;-81
2021/10/01 15:04:31;;;;;;;;;;;21.80;99.90;;;;;;5068669;28;19916;-80
2021/10/01 15:06:56;;;;;;;;;;;21.60;99.90;;;;;;5055925;28;19912;-81
2021/10/01 15:09:22;;;;;;;;;;;21.60;99.90;;;;;;5055705;28;19912;-81
2021/10/01 15:11:47;;;;;;;;;;;21.50;99.90;;;;;;5071377;28;19935;-80
2021/10/01 15:14:13;;;;;;;;;;;21.40;99.90;;;;;;5070273;28;19992;-80
2021/10/01 15:16:39;;;;;;;;;;;21.30;99.90;;;;;;5052896;28;20376;-80
2021/10/01 15:19:05;;;;;;;;;;;21.30;99.90;;;;;;5067173;28;19913;-80
2021/10/01 15:21:30;;;;;;;;;;;21.30;99.90;;;;;;5055249;28;19919;-80
2021/10/01 15:23:56;;;;;;;;;;;21.20;99.90;;;;;;5069926;28;20368;-81
2021/10/01 15:26:21;;;;;;;;;;;21.20;99.90;;;;;;5060005;28;19917;-80
2021/10/01 15:28:46;;;;;;;;;;;21.10;99.90;;;;;;5074828;28;19958;-81
2021/10/01 15:31:12;;;;;;;;;;;21.00;99.90;;;;;;5076114;28;19966;-81
2021/10/01 15:33:37;;;;;;;;;;;20.90;99.90;;;;;;5041827;28;19924;-81
2021/10/01 15:36:03;;;;;;;;;;;20.80;99.90;;;;;;5039971;28;19970;-80
2021/10/01 15:38:29;;;;;;;;;;;20.60;99.90;;;;;;5049651;28;19909;-80
2021/10/01 15:40:57;;;;;;;;;;;20.40;99.90;;;;;;5060538;28;19919;-82
2021/10/01 15:43:23;;;;;;;;;;;20.20;99.90;;;;;;5058824;28;20033;-83
2021/10/01 15:45:49;;;;;;;;;;;20.00;99.90;;;;;;5057385;28;19917;-82
2021/10/01 15:48:15;;;;;;;;;;;19.40;99.90;;;;;;5057824;28;19909;-82
2021/10/01 15:50:41;;;;;;;;;;;19.20;99.90;;;;;;5068015;28;19913;-82
2021/10/01 15:53:06;;;;;;;;;;;19.00;99.90;;;;;;5063075;28;20007;-82
2021/10/01 15:55:32;;;;;;;;;;;18.70;99.90;;;;;;5062153;28;20011;-82
2021/10/01 15:57:58;;;;;;;;;;;18.50;99.90;;;;;;5068877;28;19913;-82
2021/10/01 16:00:23;;;;;;;;;;;18.40;99.90;;;;;;5073470;28;19913;-82